Time;durP1;ratioP1;P1;durP2;ratioP2;P2;SDS_P1;SDS_P2;PMS_P1;PMS_P2;Temp;Humidity;BMP_temperature;BMP_pressure;BME280_temperature;BME280_humidity;BME280_pressure;Samples;Min_cycle;Max_cycle;Signal;HPM_P1;HPM_P2
2022/09/30 00:01:39;;;;;;;5.22;3.35;;;8.40;99.90;;;;;;6270924;22;20498;-85
2022/09/30 00:04:08;;;;;;;7.68;3.22;;;8.00;99.90;;;;;;6272675;22;20020;-86
2022/09/30 00:06:34;;;;;;;6.15;2.92;;;7.90;99.90;;;;;;6270776;22;20087;-86
2022/09/30 00:09:01;;;;;;;5.55;3.00;;;7.90;99.90;;;;;;6270642;22;20066;-86
2022/09/30 00:11:32;;;;;;;5.40;3.47;;;7.80;99.90;;;;;;6271638;22;20004;-86
2022/09/30 00:14:00;;;;;;;6.30;3.53;;;8.30;99.90;;;;;;6272349;22;20597;-86
2022/09/30 00:16:28;;;;;;;5.85;3.65;;;8.20;99.90;;;;;;6245095;22;20441;-86
2022/09/30 00:18:55;;;;;;;5.55;3.45;;;7.80;99.90;;;;;;6272161;22;20472;-86
2022/09/30 00:21:22;;;;;;;6.22;3.40;;;7.80;99.90;;;;;;6270348;22;20449;-86
2022/09/30 00:23:48;;;;;;;5.30;3.30;;;7.80;99.90;;;;;;6270956;22;20015;-86
2022/09/30 00:26:17;;;;;;;8.68;3.35;;;7.80;99.90;;;;;;6271112;22;20020;-86
2022/09/30 00:28:44;;;;;;;7.30;2.90;;;7.80;99.90;;;;;;6272044;22;20437;-86
2022/09/30 00:31:13;;;;;;;6.47;3.80;;;7.80;99.90;;;;;;6270647;22;20027;-85
2022/09/30 00:33:39;;;;;;;6.60;3.50;;;7.70;99.90;;;;;;6272407;22;20019;-86
2022/09/30 00:36:05;;;;;;;4.95;2.80;;;7.70;99.90;;;;;;6270389;22;20068;-86
2022/09/30 00:38:31;;;;;;;7.28;3.30;;;7.70;99.90;;;;;;6272135;22;20039;-86
2022/09/30 00:40:58;;;;;;;5.88;3.80;;;7.60;99.90;;;;;;6269917;22;20073;-86
2022/09/30 00:43:50;;;;;;;5.70;3.17;;;7.60;99.90;;;;;;6271451;22;20064;-86
2022/09/30 00:46:20;;;;;;;5.30;3.15;;;7.60;99.90;;;;;;6244629;22;20054;-86
2022/09/30 00:48:52;;;;;;;5.22;3.10;;;7.90;99.90;;;;;;6271764;22;20047;-86
2022/09/30 00:51:26;;;;;;;6.88;3.55;;;7.50;99.90;;;;;;6271820;22;20527;-86
2022/09/30 00:53:58;;;;;;;6.68;3.72;;;7.50;99.90;;;;;;6271685;22;20008;-86
2022/09/30 00:56:28;;;;;;;8.00;3.22;;;7.50;99.90;;;;;;6271424;22;20023;-86
2022/09/30 00:59:07;;;;;;;5.20;3.30;;;7.40;99.90;;;;;;6271917;22;20015;-86
2022/09/30 01:01:34;;;;;;;8.70;3.65;;;7.40;99.90;;;;;;6244446;22;20024;-86
2022/09/30 01:04:05;;;;;;;8.68;4.10;;;7.30;99.90;;;;;;6270071;22;20020;-86
2022/09/30 01:06:31;;;;;;;6.80;3.60;;;7.40;99.90;;;;;;6244420;22;20066;-86
2022/09/30 01:08:57;;;;;;;7.65;4.32;;;7.40;99.90;;;;;;6272027;22;20065;-86
2022/09/30 01:11:24;;;;;;;7.47;4.03;;;7.30;99.90;;;;;;6271598;22;20008;-86
2022/09/30 01:13:53;;;;;;;6.00;3.42;;;7.30;99.90;;;;;;6270183;22;20433;-86
2022/09/30 01:16:22;;;;;;;7.45;4.22;;;7.30;99.90;;;;;;6270715;22;20011;-86
2022/09/30 01:18:57;;;;;;;5.93;3.42;;;7.30;99.90;;;;;;6270235;22;20019;-86
2022/09/30 01:21:51;;;;;;;7.13;3.53;;;7.30;99.90;;;;;;6244978;22;20016;-86
2022/09/30 01:24:35;;;;;;;5.40;3.25;;;7.20;99.90;;;;;;6243999;22;20015;-86
2022/09/30 01:27:28;;;;;;;6.50;3.40;;;7.20;99.90;;;;;;6271961;22;20019;-86
2022/09/30 01:30:08;;;;;;;6.72;3.33;;;7.10;99.90;;;;;;6244368;22;20008;-86
2022/09/30 01:32:48;;;;;;;7.53;3.42;;;7.10;99.90;;;;;;6269782;22;20043;-86
2022/09/30 01:35:22;;;;;;;9.18;3.60;;;7.10;99.90;;;;;;6271761;22;20015;-86
2022/09/30 01:38:00;;;;;;;6.35;3.60;;;7.10;99.90;;;;;;6269388;22;20019;-86
2022/09/30 01:40:42;;;;;;;4.97;3.10;;;7.00;99.90;;;;;;6243832;22;20023;-86
2022/09/30 01:43:17;;;;;;;7.93;3.60;;;7.00;99.90;;;;;;6271202;22;20523;-86
2022/09/30 01:45:45;;;;;;;;;;;6.90;99.90;;;;;;6270195;22;20014;-86
2022/09/30 01:48:31;;;;;;;7.57;3.70;;;7.00;99.90;;;;;;6244652;22;19911;-86
2022/09/30 01:51:12;;;;;;;5.63;3.38;;;6.90;99.90;;;;;;6269412;22;20023;-87
2022/09/30 01:53:56;;;;;;;5.53;3.25;;;7.00;99.90;;;;;;6269705;22;20419;-86
2022/09/30 01:56:48;;;;;;;10.40;3.58;;;7.00;99.90;;;;;;6270500;22;20082;-86
2022/09/30 01:59:18;;;;;;;32.08;4.70;;;7.00;99.90;;;;;;6272274;22;20014;-86
2022/09/30 02:02:05;;;;;;;15.13;3.70;;;7.60;99.90;;;;;;6271673;22;20012;-86
2022/09/30 02:04:45;;;;;;;5.60;3.58;;;7.00;99.90;;;;;;6272022;22;20011;-86
2022/09/30 02:07:30;;;;;;;9.18;3.92;;;6.90;99.90;;;;;;6271080;22;20015;-86
2022/09/30 02:09:59;;;;;;;;;;;6.90;99.90;;;;;;6272731;22;20004;-86
2022/09/30 02:12:28;;;;;;;7.28;3.40;;;6.90;99.90;;;;;;6246196;22;20036;-86
2022/09/30 02:15:10;;;;;;;7.20;3.53;;;6.90;99.90;;;;;;6271363;22;20016;-86
2022/09/30 02:18:02;;;;;;;5.18;3.15;;;6.90;99.90;;;;;;6271535;22;20109;-86
2022/09/30 02:20:32;;;;;;;6.82;4.47;;;6.90;99.90;;;;;;6271929;22;20065;-86
2022/09/30 02:23:08;;;;;;;5.85;3.22;;;6.90;99.90;;;;;;6270396;22;20065;-86
2022/09/30 02:25:48;;;;;;;5.95;3.50;;;6.80;99.90;;;;;;6245817;22;20012;-86
2022/09/30 02:28:21;;;;;;;5.20;3.58;;;6.80;99.90;;;;;;6273006;22;20503;-86
2022/09/30 02:30:52;;;;;;;5.85;4.10;;;6.70;99.90;;;;;;6271277;22;20015;-86
2022/09/30 02:33:42;;;;;;;6.20;4.00;;;7.20;99.90;;;;;;6272649;22;20087;-86
2022/09/30 02:36:15;;;;;;;6.50;4.07;;;6.70;99.90;;;;;;6252840;22;20015;-85
2022/09/30 02:38:45;;;;;;;7.27;4.00;;;6.70;99.90;;;;;;6271990;22;20054;-86
2022/09/30 02:41:23;;;;;;;6.18;4.07;;;6.70;99.90;;;;;;6273207;22;20695;-86
2022/09/30 02:43:51;;;;;;;5.65;3.85;;;6.70;99.90;;;;;;6270477;22;20417;-85
2022/09/30 02:46:42;;;;;;;6.30;3.78;;;6.60;99.90;;;;;;6246287;22;20533;-86
2022/09/30 02:49:25;;;;;;;6.25;3.85;;;6.60;99.90;;;;;;6273692;22;20065;-85
2022/09/30 02:52:17;;;;;;;5.63;3.60;;;6.60;99.90;;;;;;6272398;22;20075;-86
2022/09/30 02:54:57;;;;;;;6.95;3.83;;;6.60;99.90;;;;;;6245904;22;20019;-86
2022/09/30 02:57:54;;;;;;;7.20;3.78;;;6.60;99.90;;;;;;6246310;22;20054;-86
2022/09/30 03:00:20;;;;;;;5.50;3.28;;;6.60;99.90;;;;;;6240601;22;20016;-86
2022/09/30 03:02:45;;;;;;;4.95;3.40;;;6.60;99.90;;;;;;6271262;22;20073;-86
2022/09/30 03:05:11;;;;;;;6.88;3.92;;;6.60;99.90;;;;;;6270488;22;20004;-86
2022/09/30 03:07:39;;;;;;;6.45;3.90;;;6.60;99.90;;;;;;6272748;22;20043;-86
2022/09/30 03:10:13;;;;;;;5.90;3.97;;;6.60;99.90;;;;;;6271141;22;20137;-86
2022/09/30 03:12:41;;;;;;;5.72;3.42;;;6.60;99.90;;;;;;6271313;22;20023;-86
2022/09/30 03:15:13;;;;;;;5.28;3.70;;;6.60;99.90;;;;;;6271101;22;20047;-86
2022/09/30 03:17:55;;;;;;;6.10;4.00;;;6.50;99.90;;;;;;6273184;22;20137;-86
2022/09/30 03:20:58;;;;;;;6.53;4.10;;;6.50;99.90;;;;;;6244865;22;20065;-86
2022/09/30 03:23:42;;;;;;;6.22;4.03;;;6.50;99.90;;;;;;6271822;22;20007;-86
2022/09/30 03:26:17;;;;;;;6.05;3.70;;;6.50;99.90;;;;;;6271165;22;20016;-86
2022/09/30 03:28:48;;;;;;;6.28;3.78;;;6.60;99.90;;;;;;6270743;22;20018;-86
2022/09/30 03:31:35;;;;;;;15.02;5.00;;;6.60;99.90;;;;;;6270577;22;20015;-85
2022/09/30 03:34:18;;;;;;;48.35;6.30;;;6.60;99.90;;;;;;6270763;22;20015;-86
2022/09/30 03:36:58;;;;;;;17.48;5.53;;;6.60;99.90;;;;;;6270810;22;20065;-86
2022/09/30 03:39:39;;;;;;;41.17;6.38;;;6.60;99.90;;;;;;6270940;22;20018;-86
2022/09/30 03:42:25;;;;;;;14.35;5.47;;;6.60;99.90;;;;;;6272702;22;20211;-85
2022/09/30 03:45:08;;;;;;;18.05;5.88;;;6.60;99.90;;;;;;6271847;22;20015;-86
2022/09/30 03:47:41;;;;;;;8.77;5.05;;;6.60;99.90;;;;;;6272720;22;20011;-86
2022/09/30 03:50:08;;;;;;;8.75;4.85;;;6.60;99.90;;;;;;6271779;22;20342;-86
2022/09/30 03:52:35;;;;;;;13.57;5.32;;;6.60;99.90;;;;;;6271197;22;20014;-86
2022/09/30 03:55:03;;;;;;;11.55;5.47;;;6.60;99.90;;;;;;6272407;22;20011;-85
2022/09/30 03:57:29;;;;;;;10.95;5.15;;;6.60;99.90;;;;;;6272767;22;20050;-85
2022/09/30 03:59:56;;;;;;;9.95;5.13;;;6.60;99.90;;;;;;6270823;22;20718;-86
2022/09/30 04:02:22;;;;;;;7.68;5.00;;;6.60;99.90;;;;;;6270862;22;20113;-86
2022/09/30 04:04:48;;;;;;;7.53;4.70;;;6.50;99.90;;;;;;6271894;22;20339;-86
2022/09/30 04:07:14;;;;;;;8.25;5.03;;;6.50;99.90;;;;;;6245015;22;20012;-85
2022/09/30 04:09:40;;;;;;;6.55;4.13;;;6.50;99.90;;;;;;6272879;22;20019;-86
2022/09/30 04:12:07;;;;;;;6.78;4.30;;;6.40;99.90;;;;;;6270934;22;20016;-86
2022/09/30 04:14:33;;;;;;;6.70;4.35;;;6.40;99.90;;;;;;6272413;22;20035;-85
2022/09/30 04:16:59;;;;;;;6.85;4.10;;;6.40;99.90;;;;;;6244966;22;20015;-86
2022/09/30 04:19:25;;;;;;;6.82;4.32;;;6.40;99.90;;;;;;6272150;22;20007;-86
2022/09/30 04:21:52;;;;;;;6.65;4.00;;;6.30;99.90;;;;;;6269863;22;20138;-86
2022/09/30 04:24:18;;;;;;;7.15;4.45;;;6.30;99.90;;;;;;6270216;22;20020;-85
2022/09/30 04:26:44;;;;;;;6.90;4.22;;;6.20;99.90;;;;;;6270640;22;20012;-85
2022/09/30 04:29:09;;;;;;;6.78;4.40;;;6.10;99.90;;;;;;6270528;22;20015;-85
2022/09/30 04:31:35;;;;;;;6.65;4.05;;;6.10;99.90;;;;;;6270239;22;20026;-86
2022/09/30 04:34:01;;;;;;;5.75;3.97;;;6.20;99.90;;;;;;6270108;22;20018;-86
2022/09/30 04:36:26;;;;;;;6.03;4.03;;;6.10;99.90;;;;;;6270379;22;20011;-86
2022/09/30 04:38:52;;;;;;;6.70;3.83;;;6.10;99.90;;;;;;6270222;22;20061;-85
2022/09/30 04:41:18;;;;;;;6.32;4.28;;;6.00;99.90;;;;;;6244744;22;20043;-86
2022/09/30 04:43:45;;;;;;;6.13;4.05;;;6.10;99.90;;;;;;6271758;22;20012;-85
2022/09/30 04:46:12;;;;;;;6.80;4.10;;;6.00;99.90;;;;;;6270393;22;20015;-85
2022/09/30 04:48:38;;;;;;;5.70;3.83;;;6.00;99.90;;;;;;6244318;22;20086;-86
2022/09/30 04:51:04;;;;;;;6.10;3.72;;;6.20;99.90;;;;;;6269865;22;20447;-86
2022/09/30 04:53:29;;;;;;;5.53;3.50;;;6.00;99.90;;;;;;6271332;22;20008;-86
2022/09/30 04:55:59;;;;;;;5.80;3.83;;;6.00;99.90;;;;;;6270184;22;20098;-86
2022/09/30 04:58:26;;;;;;;5.72;3.38;;;6.10;99.90;;;;;;6269957;22;20047;-86
2022/09/30 05:01:00;;;;;;;5.80;3.92;;;5.90;99.90;;;;;;6271837;22;20085;-85
2022/09/30 05:03:25;;;;;;;6.60;3.77;;;5.90;99.90;;;;;;6243594;22;20026;-86
2022/09/30 05:05:51;;;;;;;11.20;3.80;;;5.90;99.90;;;;;;6271538;22;20015;-86
2022/09/30 05:08:17;;;;;;;7.38;4.55;;;5.90;99.90;;;;;;6270029;22;20012;-86
2022/09/30 05:10:42;;;;;;;16.95;4.10;;;5.90;99.90;;;;;;6271770;22;20014;-86
2022/09/30 05:13:09;;;;;;;6.65;3.88;;;5.90;99.90;;;;;;6244362;22;20012;-86
2022/09/30 05:15:34;;;;;;;7.57;4.20;;;5.90;99.90;;;;;;6269865;22;20015;-86
2022/09/30 05:18:00;;;;;;;7.40;3.78;;;5.90;99.90;;;;;;6269490;22;20020;-86
2022/09/30 05:20:26;;;;;;;7.60;4.07;;;5.90;99.90;;;;;;6271205;22;20101;-86
2022/09/30 05:22:55;;;;;;;6.07;3.90;;;5.90;99.90;;;;;;6271470;22;20047;-86
2022/09/30 05:25:22;;;;;;;8.77;4.25;;;5.90;99.90;;;;;;6244585;22;20314;-84
2022/09/30 05:27:49;;;;;;;6.88;3.58;;;5.90;99.90;;;;;;6269797;22;20019;-85
2022/09/30 05:30:14;;;;;;;5.90;3.70;;;5.90;99.90;;;;;;6271348;22;20011;-86
2022/09/30 05:32:40;;;;;;;7.90;4.10;;;5.90;99.90;;;;;;6271362;22;20022;-85
2022/09/30 05:35:06;;;;;;;7.32;4.03;;;5.90;99.90;;;;;;6271258;22;20267;-84
2022/09/30 05:37:33;;;;;;;19.77;4.95;;;5.80;99.90;;;;;;6272448;22;20008;-85
2022/09/30 05:39:59;;;;;;;64.85;5.30;;;5.80;99.90;;;;;;6246761;22;20087;-86
2022/09/30 05:42:25;;;;;;;41.58;4.43;;;5.80;99.90;;;;;;6271971;22;20349;-86
2022/09/30 05:44:51;;;;;;;32.22;4.35;;;5.80;99.90;;;;;;6272921;22;20083;-85
2022/09/30 05:47:17;;;;;;;27.33;4.10;;;5.80;99.90;;;;;;6274059;22;20012;-85
2022/09/30 05:49:44;;;;;;;35.05;4.88;;;5.80;99.90;;;;;;6273705;22;20026;-85
2022/09/30 05:52:12;;;;;;;35.58;5.00;;;5.80;99.90;;;;;;6273782;22;20012;-86
2022/09/30 05:54:37;;;;;;;12.27;3.70;;;5.70;99.90;;;;;;6274165;22;20015;-86
2022/09/30 05:57:03;;;;;;;5.30;3.33;;;5.70;99.90;;;;;;6274034;22;20007;-85
2022/09/30 05:59:29;;;;;;;5.97;3.80;;;5.70;99.90;;;;;;6272999;22;20359;-86
2022/09/30 06:01:54;;;;;;;9.00;3.55;;;5.70;99.90;;;;;;6271497;22;20011;-85
2022/09/30 06:04:21;;;;;;;7.35;3.53;;;5.70;99.90;;;;;;6271277;22;20019;-86
2022/09/30 06:06:47;;;;;;;14.25;3.80;;;5.70;99.90;;;;;;6271635;22;20353;-86
2022/09/30 06:09:13;;;;;;;5.40;2.85;;;5.70;99.90;;;;;;6272685;22;20011;-86
2022/09/30 06:11:39;;;;;;;5.50;3.03;;;5.70;99.90;;;;;;6271495;22;20090;-85
2022/09/30 06:14:04;;;;;;;20.33;3.60;;;5.70;99.90;;;;;;6271696;22;20007;-85
2022/09/30 06:16:30;;;;;;;13.82;3.63;;;5.70;99.90;;;;;;6273193;22;20397;-85
2022/09/30 06:18:56;;;;;;;16.00;4.13;;;5.70;99.90;;;;;;6272280;22;20007;-85
2022/09/30 06:21:22;;;;;;;44.70;5.53;;;5.70;99.90;;;;;;6273105;22;20470;-85
2022/09/30 06:23:47;;;;;;;24.80;4.40;;;5.70;99.90;;;;;;6272049;22;20034;-85
2022/09/30 06:26:13;;;;;;;14.05;4.63;;;5.70;99.90;;;;;;6272713;22;20015;-85
2022/09/30 06:28:40;;;;;;;27.13;4.47;;;5.80;99.90;;;;;;6272178;22;20015;-85
2022/09/30 06:31:06;;;;;;;38.88;5.93;;;5.80;99.90;;;;;;6272278;22;20011;-84
2022/09/30 06:33:32;;;;;;;8.55;4.70;;;5.80;99.90;;;;;;6270026;22;20057;-84
2022/09/30 06:35:58;;;;;;;6.90;4.65;;;5.80;99.90;;;;;;6271154;22;20008;-85
2022/09/30 06:38:24;;;;;;;13.93;4.88;;;5.80;99.90;;;;;;6270615;22;20019;-84
2022/09/30 06:40:50;;;;;;;20.08;5.38;;;5.90;99.90;;;;;;6272783;22;20061;-84
2022/09/30 06:43:16;;;;;;;7.47;4.68;;;5.90;99.90;;;;;;6272411;22;20368;-84
2022/09/30 06:45:45;;;;;;;7.32;4.65;;;6.00;99.90;;;;;;6271128;22;20570;-84
2022/09/30 06:48:11;;;;;;;16.65;6.10;;;6.00;99.90;;;;;;6273182;22;20012;-84
2022/09/30 06:50:38;;;;;;;9.70;6.70;;;6.00;99.90;;;;;;6273015;22;20007;-85
2022/09/30 06:53:06;;;;;;;12.82;7.38;;;6.10;99.90;;;;;;6269172;22;20022;-85
2022/09/30 06:55:32;;;;;;;11.85;7.15;;;6.10;99.90;;;;;;6271162;22;20065;-85
2022/09/30 06:57:58;;;;;;;16.27;8.75;;;6.20;99.90;;;;;;6267493;22;20019;-85
2022/09/30 07:00:25;;;;;;;15.65;9.77;;;6.20;99.90;;;;;;6268363;22;20678;-86
2022/09/30 07:02:53;;;;;;;10.90;7.95;;;6.30;99.90;;;;;;6269288;22;20038;-86
2022/09/30 07:05:18;;;;;;;12.63;8.70;;;6.30;99.90;;;;;;6271305;22;20012;-86
2022/09/30 07:07:44;;;;;;;13.70;8.57;;;6.40;99.90;;;;;;6269650;22;20406;-86
2022/09/30 07:10:10;;;;;;;12.13;8.85;;;6.40;99.90;;;;;;6271422;22;20008;-86
2022/09/30 07:12:36;;;;;;;11.57;7.70;;;6.50;99.90;;;;;;6270712;22;20015;-86
2022/09/30 07:15:01;;;;;;;13.00;9.27;;;6.50;99.90;;;;;;6272015;22;20019;-86
2022/09/30 07:17:28;;;;;;;11.00;8.27;;;6.50;99.90;;;;;;6271796;22;20081;-86
2022/09/30 07:19:54;;;;;;;11.32;8.63;;;6.50;99.90;;;;;;6271664;22;20011;-86
2022/09/30 07:22:26;;;;;;;12.65;9.10;;;6.60;99.90;;;;;;6271667;22;20016;-86
2022/09/30 07:24:52;;;;;;;12.02;9.23;;;6.60;99.90;;;;;;6271488;22;20014;-86
2022/09/30 07:27:17;;;;;;;14.95;10.65;;;6.60;99.90;;;;;;6269246;22;20019;-86
2022/09/30 07:29:44;;;;;;;13.32;10.55;;;6.70;99.90;;;;;;6271499;22;20068;-86
2022/09/30 07:32:10;;;;;;;17.13;10.93;;;6.70;99.90;;;;;;6269468;22;20018;-86
2022/09/30 07:34:36;;;;;;;16.25;11.73;;;6.80;99.90;;;;;;6271937;22;20019;-86
2022/09/30 07:37:03;;;;;;;16.13;11.60;;;6.80;99.90;;;;;;6271962;22;20015;-86
2022/09/30 07:39:28;;;;;;;15.60;11.05;;;6.90;99.90;;;;;;6271994;22;20087;-86
2022/09/30 07:41:54;;;;;;;17.05;12.00;;;6.90;99.90;;;;;;6271096;22;20456;-86
2022/09/30 07:44:20;;;;;;;18.00;11.75;;;7.00;99.90;;;;;;6244434;22;20022;-86
2022/09/30 07:46:47;;;;;;;18.35;12.18;;;7.00;99.90;;;;;;6271655;22;20055;-87
2022/09/30 07:49:23;;;;;;;20.60;13.32;;;7.10;99.90;;;;;;6271240;22;20090;-86
2022/09/30 07:51:49;;;;;;;19.75;13.65;;;7.20;99.90;;;;;;6269933;22;20018;-86
2022/09/30 07:54:17;;;;;;;20.40;13.02;;;7.20;99.90;;;;;;6271438;22;20012;-86
2022/09/30 07:56:44;;;;;;;25.38;14.93;;;7.30;99.90;;;;;;6270424;22;20449;-86
2022/09/30 07:59:10;;;;;;;19.92;13.15;;;7.40;99.90;;;;;;6271447;22;20011;-86
2022/09/30 08:01:36;;;;;;;23.67;14.55;;;7.50;99.90;;;;;;6271193;22;20392;-86
2022/09/30 08:04:05;;;;;;;24.90;14.45;;;7.50;99.90;;;;;;6271555;22;20015;-86
2022/09/30 08:06:35;;;;;;;22.45;15.73;;;7.60;99.90;;;;;;6268483;22;20015;-87
2022/09/30 08:09:01;;;;;;;25.70;15.57;;;7.70;99.90;;;;;;6269481;22;20022;-86
2022/09/30 08:11:27;;;;;;;25.52;16.95;;;7.80;99.90;;;;;;6269900;22;20011;-86
2022/09/30 08:13:55;;;;;;;27.55;16.98;;;7.90;99.90;;;;;;6270845;22;20437;-85
2022/09/30 08:16:22;;;;;;;25.65;16.13;;;7.90;99.90;;;;;;6269535;22;20422;-85
2022/09/30 08:18:48;;;;;;;21.17;14.13;;;8.00;99.90;;;;;;6271031;22;20022;-85
2022/09/30 08:21:13;;;;;;;26.55;16.25;;;8.10;99.90;;;;;;6270779;22;20451;-85
2022/09/30 08:23:40;;;;;;;25.20;17.27;;;8.20;99.90;;;;;;6269133;22;20083;-85
2022/09/30 08:26:08;;;;;;;31.23;18.20;;;8.30;99.90;;;;;;6270509;22;20016;-85
2022/09/30 08:28:34;;;;;;;26.45;16.75;;;8.30;99.90;;;;;;6270603;22;20008;-86
2022/09/30 08:31:07;;;;;;;26.27;17.73;;;8.40;99.90;;;;;;6271618;22;20069;-85
2022/09/30 08:33:33;;;;;;;27.30;16.15;;;8.50;99.90;;;;;;6243015;22;20094;-85
2022/09/30 08:36:16;;;;;;;25.73;16.83;;;8.60;99.90;;;;;;6271103;22;20015;-85
2022/09/30 08:38:42;;;;;;;29.55;18.42;;;8.70;99.90;;;;;;6268631;22;20026;-85
2022/09/30 08:41:38;;;;;;;31.20;19.38;;;8.80;99.90;;;;;;6268603;22;20051;-85
2022/09/30 08:44:24;;;;;;;30.58;17.77;;;8.90;99.90;;;;;;6270877;22;20015;-86
2022/09/30 08:47:00;;;;;;;34.28;18.85;;;9.00;99.90;;;;;;6270505;22;20015;-85
2022/09/30 08:49:51;;;;;;;31.80;17.98;;;9.20;99.90;;;;;;6270565;22;20018;-85
2022/09/30 08:52:22;;;;;;;38.47;19.33;;;9.20;99.90;;;;;;6268476;22;20007;-85
2022/09/30 08:54:53;;;;;;;34.47;18.42;;;9.40;99.90;;;;;;6270708;22;20053;-85
2022/09/30 08:57:19;;;;;;;35.80;17.02;;;9.60;99.90;;;;;;6270764;22;20011;-84
2022/09/30 08:59:53;;;;;;;31.88;16.70;;;9.80;99.90;;;;;;6268591;22;20022;-85
2022/09/30 09:02:26;;;;;;;28.35;16.13;;;9.90;99.90;;;;;;6270642;22;20016;-84
2022/09/30 09:04:56;;;;;;;25.70;14.75;;;10.00;99.90;;;;;;6268729;22;20041;-85
2022/09/30 09:07:27;;;;;;;27.75;13.75;;;10.10;99.90;;;;;;6269949;22;20018;-84
2022/09/30 09:10:00;;;;;;;18.38;11.77;;;10.20;99.90;;;;;;6269939;22;20051;-85
2022/09/30 09:12:38;;;;;;;19.77;12.73;;;10.30;99.90;;;;;;6268153;22;20024;-85
2022/09/30 09:15:31;;;;;;;18.40;11.65;;;10.40;99.90;;;;;;6268898;22;20687;-88
2022/09/30 09:18:07;;;;;;;16.58;10.57;;;10.50;99.90;;;;;;6270498;22;20015;-86
2022/09/30 09:20:37;;;;;;;18.05;11.48;;;10.60;99.90;;;;;;6268998;22;20024;-86
2022/09/30 09:23:07;;;;;;;15.25;9.60;;;10.70;99.90;;;;;;6269185;22;20397;-84
2022/09/30 09:25:33;;;;;;;16.10;10.27;;;10.80;99.90;;;;;;6270307;22;20082;-85
2022/09/30 09:28:02;;;;;;;15.75;10.13;;;11.00;99.90;;;;;;6270812;22;20058;-84
2022/09/30 09:30:32;;;;;;;12.38;8.75;;;11.20;99.90;;;;;;6270629;22;20069;-84
2022/09/30 09:33:21;;;;;;;12.48;7.70;;;11.30;99.90;;;;;;6270036;22;20015;-85
2022/09/30 09:36:05;;;;;;;11.23;7.18;;;11.40;99.90;;;;;;6270288;22;20015;-85
2022/09/30 09:38:43;;;;;;;11.85;7.75;;;11.50;99.90;;;;;;6268942;22;20069;-85
2022/09/30 09:41:22;;;;;;;9.95;6.97;;;11.70;99.90;;;;;;6270575;22;20012;-85
2022/09/30 09:44:22;;;;;;;10.63;7.30;;;11.80;99.90;;;;;;6268797;22;20016;-86
2022/09/30 09:46:54;;;;;;;9.75;6.70;;;12.00;99.90;;;;;;6270042;22;20028;-85
2022/09/30 09:49:19;;;;;;;14.90;7.25;;;12.10;99.90;;;;;;6269751;22;20425;-85
2022/09/30 09:52:06;;;;;;;10.95;7.13;;;12.20;99.90;;;;;;6269669;22;20043;-85
2022/09/30 09:54:38;;;;;;;11.40;7.10;;;12.30;99.90;;;;;;6270009;22;20008;-85
2022/09/30 09:57:15;;;;;;;12.50;7.53;;;12.50;99.90;;;;;;6268205;22;20011;-86
2022/09/30 09:59:58;;;;;;;10.25;7.20;;;12.70;99.90;;;;;;6268982;22;20016;-84
2022/09/30 10:02:26;;;;;;;11.95;7.70;;;12.80;99.90;;;;;;6270588;22;20012;-84
2022/09/30 10:04:58;;;;;;;11.27;7.47;;;13.00;99.90;;;;;;6269284;22;20091;-85
2022/09/30 10:07:26;;;;;;;12.40;8.45;;;13.20;99.90;;;;;;6242591;22;20087;-85
2022/09/30 10:10:17;;;;;;;14.55;8.88;;;13.30;99.90;;;;;;6270663;22;20014;-85
2022/09/30 10:12:44;;;;;;;12.23;8.70;;;13.60;99.90;;;;;;6269410;22;20015;-85
2022/09/30 10:15:19;;;;;;;14.75;8.40;;;13.80;99.90;;;;;;6271081;22;20035;-85
2022/09/30 10:17:51;;;;;;;12.35;8.23;;;14.00;99.90;;;;;;6271185;22;20062;-85
2022/09/30 10:20:33;;;;;;;11.10;7.75;;;14.10;99.90;;;;;;6271541;22;20033;-85
2022/09/30 10:23:02;;;;;;;10.93;6.60;;;14.20;99.90;;;;;;6273274;22;20090;-86
2022/09/30 10:25:28;;;;;;;10.70;7.05;;;14.40;99.90;;;;;;6272945;22;20017;-86
2022/09/30 10:28:00;;;;;;;11.30;7.00;;;14.90;99.90;;;;;;6273179;22;20471;-86
2022/09/30 10:30:40;;;;;;;8.90;5.88;;;14.50;99.90;;;;;;6271888;22;20480;-85
2022/09/30 10:33:32;;;;;;;7.63;4.50;;;14.70;99.90;;;;;;6272562;22;20528;-86
2022/09/30 10:36:06;;;;;;;7.97;4.43;;;15.20;99.90;;;;;;6256765;22;20019;-85
2022/09/30 10:38:33;;;;;;;7.20;3.28;;;15.00;99.90;;;;;;6270131;22;20444;-85
2022/09/30 10:41:00;;;;;;;5.63;2.83;;;15.10;99.90;;;;;;6273086;22;20008;-83
2022/09/30 10:43:40;;;;;;;4.68;2.20;;;15.20;99.90;;;;;;6272498;22;20024;-84
2022/09/30 10:46:07;;;;;;;4.15;2.38;;;15.30;99.90;;;;;;6272624;22;20423;-83
2022/09/30 10:48:36;;;;;;;4.38;1.90;;;15.50;99.90;;;;;;6271088;22;20018;-85
2022/09/30 10:51:05;;;;;;;4.18;1.95;;;15.60;99.90;;;;;;6269904;22;20012;-85
2022/09/30 10:53:34;;;;;;;4.60;1.45;;;15.70;99.90;;;;;;6270941;22;20012;-86
2022/09/30 10:56:04;;;;;;;4.18;1.73;;;15.90;99.90;;;;;;6245252;22;20022;-82
2022/09/30 10:58:53;;;;;;;2.83;1.50;;;16.00;99.90;;;;;;6270544;22;20058;-84
2022/09/30 11:01:37;;;;;;;3.53;1.60;;;16.10;99.90;;;;;;6272765;22;20012;-84
2022/09/30 11:04:26;;;;;;;3.93;1.50;;;16.10;99.90;;;;;;6272048;22;20064;-84
2022/09/30 11:06:59;;;;;;;1.70;1.05;;;16.10;99.90;;;;;;6270757;22;20481;-84
2022/09/30 11:09:36;;;;;;;4.32;1.40;;;16.00;99.90;;;;;;6270519;22;20019;-83
2022/09/30 11:12:13;;;;;;;3.00;1.55;;;16.20;99.90;;;;;;6272096;22;20087;-83
2022/09/30 11:14:59;;;;;;;3.03;1.50;;;16.30;99.90;;;;;;6270980;22;20020;-83
2022/09/30 11:17:38;;;;;;;3.08;1.40;;;16.30;99.90;;;;;;6270977;22;20016;-83
2022/09/30 11:20:19;;;;;;;3.50;1.90;;;16.40;99.90;;;;;;6270089;22;20553;-84
2022/09/30 11:22:53;;;;;;;3.53;1.80;;;16.40;99.90;;;;;;6270563;22;20077;-84
2022/09/30 11:26:00;;;;;;;5.15;1.90;;;16.50;99.90;;;;;;6270764;22;20023;-84
2022/09/30 11:28:49;;;;;;;5.18;2.28;;;16.70;99.90;;;;;;6152477;23;20036;-84
2022/09/30 11:31:36;;;;;;;3.22;1.67;;;16.70;99.90;;;;;;6152762;23;20027;-84
2022/09/30 11:34:59;;;;;;;4.50;2.00;;;16.70;99.90;;;;;;6151915;23;20482;-85
2022/09/30 11:38:02;;;;;;;3.58;2.30;;;16.60;99.90;;;;;;6088603;23;20044;-84
2022/09/30 11:40:46;;;;;;;3.75;2.40;;;16.60;99.90;;;;;;6064360;23;20566;-85
2022/09/30 11:43:14;;;;;;;;;;;16.60;99.90;;;;;;6088672;23;20018;-84
2022/09/30 11:46:10;;;;;;;3.83;2.03;;;16.60;99.90;;;;;;6088096;23;19916;-85
2022/09/30 11:49:13;;;;;;;6.07;2.50;;;16.70;99.90;;;;;;6087913;23;20101;-85
2022/09/30 11:52:16;;;;;;;4.40;1.65;;;16.90;99.90;;;;;;6059587;23;20018;-84
2022/09/30 11:55:12;;;;;;;4.40;1.90;;;17.00;99.90;;;;;;6029254;23;20042;-84
2022/09/30 11:58:00;;;;;;;5.25;1.67;;;17.00;99.90;;;;;;6020928;23;20019;-84
2022/09/30 12:00:29;;;;;;;3.25;1.63;;;16.90;99.90;;;;;;6059447;23;20019;-84
2022/09/30 12:03:23;;;;;;;3.30;1.55;;;16.90;99.90;;;;;;6058506;23;20022;-84
2022/09/30 12:05:55;;;;;;;4.57;1.50;;;16.90;99.90;;;;;;6112971;23;20018;-85
2022/09/30 12:08:29;;;;;;;3.00;1.50;;;16.90;99.90;;;;;;6208913;23;20388;-84
2022/09/30 12:10:58;;;;;;;5.25;1.70;;;16.70;99.90;;;;;;6212021;23;20012;-83
2022/09/30 12:13:42;;;;;;;3.45;1.77;;;16.60;99.90;;;;;;6211253;23;20051;-81
2022/09/30 12:16:19;;;;;;;3.67;1.70;;;16.40;99.90;;;;;;6211091;23;20023;-84
2022/09/30 12:19:25;;;;;;;3.63;1.75;;;16.20;99.90;;;;;;6212471;23;20019;-82
2022/09/30 12:21:57;;;;;;;3.80;1.85;;;16.20;99.90;;;;;;6152755;23;20027;-83
2022/09/30 12:24:34;;;;;;;4.28;1.60;;;16.30;99.90;;;;;;6236804;23;20066;-84
2022/09/30 12:27:01;;;;;;;3.90;1.55;;;16.50;99.90;;;;;;6269337;22;20012;-84
2022/09/30 12:32:31;;;;;;;;;;;16.80;99.90;;;;;;6268755;22;20030;-83
2022/09/30 12:35:16;;;;;;;2.85;1.35;;;16.80;99.90;;;;;;6269507;22;19911;-83
2022/09/30 12:38:07;;;;;;;4.22;1.27;;;16.70;99.90;;;;;;6269311;22;20423;-83
2022/09/30 12:40:54;;;;;;;3.95;1.38;;;16.80;99.90;;;;;;6268913;22;20023;-83
2022/09/30 12:43:56;;;;;;;3.50;1.50;;;16.80;99.90;;;;;;6270696;22;20012;-82
2022/09/30 12:46:44;;;;;;;3.35;1.65;;;16.80;99.90;;;;;;6270403;22;20062;-82
2022/09/30 12:49:18;;;;;;;3.83;2.03;;;16.80;99.90;;;;;;6269028;22;20094;-82
2022/09/30 12:51:47;;;;;;;5.20;2.33;;;16.90;99.90;;;;;;6268814;22;20090;-82
2022/09/30 12:54:39;;;;;;;3.75;1.50;;;16.90;99.90;;;;;;6270052;22;20593;-82
2022/09/30 12:57:08;;;;;;;6.60;2.22;;;16.90;99.90;;;;;;6270788;22;20124;-83
2022/09/30 12:59:36;;;;;;;3.72;1.90;;;16.90;99.90;;;;;;6268991;22;20591;-82
2022/09/30 13:02:05;;;;;;;4.90;2.00;;;16.90;99.90;;;;;;6269768;22;20503;-82
2022/09/30 13:04:43;;;;;;;4.22;2.42;;;17.00;99.90;;;;;;6268846;22;20059;-82
2022/09/30 13:07:16;;;;;;;4.88;2.15;;;17.10;99.90;;;;;;6270562;22;20016;-80
2022/09/30 13:10:25;;;;;;;4.22;2.28;;;17.10;99.90;;;;;;6268663;22;20047;-81
2022/09/30 13:13:22;;;;;;;6.55;2.97;;;17.00;99.90;;;;;;6225649;22;20024;-81
2022/09/30 13:15:49;;;;;;;5.22;3.00;;;17.00;99.90;;;;;;6268333;22;20162;-80
2022/09/30 13:18:22;;;;;;;6.88;3.22;;;17.00;99.90;;;;;;6268063;22;20396;-80
2022/09/30 13:20:53;;;;;;;6.32;3.72;;;17.00;99.90;;;;;;6269698;22;20051;-80
2022/09/30 13:23:43;;;;;;;6.63;3.92;;;17.00;99.90;;;;;;6270363;22;20073;-80
2022/09/30 13:26:33;;;;;;;9.55;3.83;;;17.00;99.90;;;;;;6270132;22;20019;-80